Time;durP1;ratioP1;P1;durP2;ratioP2;P2;SDS_P1;SDS_P2;PMS_P1;PMS_P2;Temp;Humidity;BMP_temperature;BMP_pressure;BME280_temperature;BME280_humidity;BME280_pressure;Samples;Min_cycle;Max_cycle;Signal;HPM_P1;HPM_P2
2024/01/25 00:00:41;;;;;;;33.70;10.37;;;;;;;;;;5071941;28;20035;-63
2024/01/25 00:03:06;;;;;;;37.17;13.37;;;;;;;;;;5073346;28;20407;-63
2024/01/25 00:05:32;;;;;;;24.57;9.10;;;;;;;;;;5071952;28;20394;-63
2024/01/25 00:07:57;;;;;;;51.80;13.10;;;;;;;;;;5073644;28;20422;-63
2024/01/25 00:10:22;;;;;;;51.55;13.18;;;;;;;;;;5071923;28;20028;-64
2024/01/25 00:12:47;;;;;;;42.23;11.77;;;;;;;;;;5072956;28;20024;-62
2024/01/25 00:15:13;;;;;;;39.22;13.07;;;;;;;;;;5071704;28;20454;-62
2024/01/25 00:17:38;;;;;;;39.47;11.25;;;;;;;;;;5073204;28;20024;-63
2024/01/25 00:20:04;;;;;;;33.80;10.40;;;;;;;;;;5071585;28;20044;-62
2024/01/25 00:22:29;;;;;;;51.83;11.23;;;;;;;;;;5072930;28;20017;-63
2024/01/25 00:24:54;;;;;;;44.13;10.13;;;;;;;;;;5071666;28;20048;-60
2024/01/25 00:27:19;;;;;;;40.87;10.50;;;;;;;;;;5073079;28;20423;-63
2024/01/25 00:29:45;;;;;;;44.40;12.13;;;;;;;;;;5071307;28;20451;-63
2024/01/25 00:32:10;;;;;;;52.17;10.93;;;;;;;;;;5072985;28;20514;-63
2024/01/25 00:34:35;;;;;;;30.20;7.67;;;;;;;;;;5071082;28;20032;-63
2024/01/25 00:37:00;;;;;;;42.85;11.68;;;;;;;;;;5072933;28;20434;-63
2024/01/25 00:39:26;;;;;;;28.42;9.25;;;;;;;;;;5071469;28;20090;-63
2024/01/25 00:41:51;;;;;;;40.85;12.18;;;;;;;;;;5072365;28;20463;-64
2024/01/25 00:44:17;;;;;;;28.15;8.65;;;;;;;;;;5071506;28;20049;-64
2024/01/25 00:46:43;;;;;;;46.38;12.32;;;;;;;;;;5072653;28;20047;-63
2024/01/25 00:49:08;;;;;;;37.05;10.95;;;;;;;;;;5071023;28;20036;-63
2024/01/25 00:51:33;;;;;;;32.33;7.88;;;;;;;;;;5072251;28;20126;-64
2024/01/25 00:53:59;;;;;;;41.60;10.23;;;;;;;;;;5070848;28;20415;-63
2024/01/25 00:56:24;;;;;;;36.15;8.45;;;;;;;;;;5072274;28;20074;-64
2024/01/25 00:58:49;;;;;;;33.40;11.65;;;;;;;;;;5071111;28;20032;-64
2024/01/25 01:01:15;;;;;;;49.35;9.50;;;;;;;;;;5072590;28;20055;-64
2024/01/25 01:03:40;;;;;;;35.13;9.15;;;;;;;;;;5070552;28;20064;-63
2024/01/25 01:06:05;;;;;;;60.88;16.45;;;;;;;;;;5072491;28;20027;-63
2024/01/25 01:08:31;;;;;;;47.58;10.82;;;;;;;;;;5070119;28;20017;-64
2024/01/25 01:10:56;;;;;;;40.35;10.10;;;;;;;;;;5071520;28;20531;-64
2024/01/25 01:13:21;;;;;;;65.53;12.80;;;;;;;;;;5070592;28;20008;-63
2024/01/25 01:15:46;;;;;;;62.83;12.03;;;;;;;;;;5071952;28;20051;-64
2024/01/25 01:18:11;;;;;;;28.53;9.30;;;;;;;;;;5072347;28;20415;-64
2024/01/25 01:20:36;;;;;;;43.57;10.57;;;;;;;;;;5069734;28;20451;-64
2024/01/25 01:23:02;;;;;;;40.07;10.33;;;;;;;;;;5072026;28;20457;-64
2024/01/25 01:25:27;;;;;;;32.10;8.75;;;;;;;;;;5070895;28;20078;-64
2024/01/25 01:27:52;;;;;;;26.93;8.07;;;;;;;;;;5071246;28;20483;-64
2024/01/25 01:30:17;;;;;;;32.15;9.93;;;;;;;;;;5070480;28;20083;-63
2024/01/25 01:32:42;;;;;;;36.83;10.90;;;;;;;;;;5071684;28;20024;-63
2024/01/25 01:35:08;;;;;;;32.47;9.23;;;;;;;;;;5070424;28;20455;-63
2024/01/25 01:37:33;;;;;;;32.25;11.73;;;;;;;;;;5071683;28;20024;-63
2024/01/25 01:39:59;;;;;;;56.13;14.17;;;;;;;;;;5070184;28;20075;-63
2024/01/25 01:42:24;;;;;;;37.75;11.77;;;;;;;;;;5071136;28;21026;-64
2024/01/25 01:44:50;;;;;;;28.30;10.73;;;;;;;;;;5070128;28;20115;-64
2024/01/25 01:47:15;;;;;;;27.00;9.32;;;;;;;;;;5071609;28;20415;-64
2024/01/25 01:49:40;;;;;;;35.20;9.85;;;;;;;;;;5069445;28;20495;-63
2024/01/25 01:52:06;;;;;;;33.78;9.25;;;;;;;;;;5071044;28;20426;-63
2024/01/25 01:54:31;;;;;;;37.47;7.30;;;;;;;;;;5070098;28;20036;-63
2024/01/25 01:56:56;;;;;;;31.50;9.47;;;;;;;;;;5070865;28;20448;-63
2024/01/25 01:59:25;;;;;;;40.72;10.77;;;;;;;;;;5070080;28;20092;-63
2024/01/25 02:01:50;;;;;;;31.70;9.40;;;;;;;;;;5071169;28;20025;-63
2024/01/25 02:04:15;;;;;;;34.27;12.50;;;;;;;;;;5069498;28;20067;-63
2024/01/25 02:06:42;;;;;;;34.90;9.73;;;;;;;;;;5071084;28;20031;-64
2024/01/25 02:09:07;;;;;;;37.65;8.07;;;;;;;;;;5070165;28;20032;-64
2024/01/25 02:11:32;;;;;;;30.35;9.27;;;;;;;;;;5070704;28;20047;-64
2024/01/25 02:13:58;;;;;;;28.20;8.50;;;;;;;;;;5069613;28;20028;-64
2024/01/25 02:16:23;;;;;;;39.73;10.37;;;;;;;;;;5071260;28;20028;-64
2024/01/25 02:18:49;;;;;;;35.25;10.65;;;;;;;;;;5069050;28;20442;-63
2024/01/25 02:21:14;;;;;;;48.17;13.15;;;;;;;;;;5070550;28;20032;-64
2024/01/25 02:23:39;;;;;;;36.03;11.52;;;;;;;;;;5069278;28;20024;-64
2024/01/25 02:26:05;;;;;;;51.10;12.10;;;;;;;;;;5070591;28;20082;-64
2024/01/25 02:28:30;;;;;;;30.13;11.33;;;;;;;;;;5069690;28;20488;-64
2024/01/25 02:30:55;;;;;;;36.47;11.57;;;;;;;;;;5070643;28;20418;-64
2024/01/25 02:33:20;;;;;;;39.50;11.30;;;;;;;;;;5070608;28;20046;-64
2024/01/25 02:35:45;;;;;;;40.63;12.17;;;;;;;;;;5069260;28;20036;-64
2024/01/25 02:38:11;;;;;;;49.47;9.87;;;;;;;;;;5071097;28;20500;-63
2024/01/25 02:40:36;;;;;;;28.93;10.40;;;;;;;;;;5068816;28;20463;-63
2024/01/25 02:43:01;;;;;;;33.93;11.07;;;;;;;;;;5070802;28;20423;-63
2024/01/25 02:45:26;;;;;;;27.67;7.37;;;;;;;;;;5069367;28;20466;-63
2024/01/25 02:47:51;;;;;;;35.47;9.50;;;;;;;;;;5070267;28;20599;-63
2024/01/25 02:50:16;;;;;;;43.47;10.27;;;;;;;;;;5069263;28;20786;-63
2024/01/25 02:52:42;;;;;;;40.47;10.27;;;;;;;;;;5070461;28;20469;-63
2024/01/25 02:55:07;;;;;;;34.70;8.05;;;;;;;;;;5069037;28;20040;-63
2024/01/25 02:57:32;;;;;;;27.40;8.98;;;;;;;;;;5070285;28;20052;-63
2024/01/25 02:59:58;;;;;;;48.72;12.32;;;;;;;;;;5069207;28;20108;-63
2024/01/25 03:02:23;;;;;;;27.03;8.13;;;;;;;;;;5070328;28;20029;-63
2024/01/25 03:04:48;;;;;;;41.97;10.20;;;;;;;;;;5068959;28;20569;-64
2024/01/25 03:07:13;;;;;;;52.97;13.63;;;;;;;;;;5069373;28;20078;-63
2024/01/25 03:09:38;;;;;;;40.03;13.88;;;;;;;;;;5068426;28;20478;-63
2024/01/25 03:12:04;;;;;;;42.87;13.57;;;;;;;;;;5070644;28;20447;-63
2024/01/25 03:14:29;;;;;;;59.50;12.77;;;;;;;;;;5069431;28;20044;-63
2024/01/25 03:16:54;;;;;;;51.83;16.27;;;;;;;;;;5069804;28;20055;-63
2024/01/25 03:19:19;;;;;;;36.97;11.00;;;;;;;;;;5069196;28;20447;-63
2024/01/25 03:21:44;;;;;;;47.43;11.93;;;;;;;;;;5070065;28;20462;-64
2024/01/25 03:24:10;;;;;;;35.70;11.03;;;;;;;;;;5068830;28;21044;-64
2024/01/25 03:26:35;;;;;;;47.90;12.10;;;;;;;;;;5070209;28;20427;-63
2024/01/25 03:29:00;;;;;;;37.42;10.15;;;;;;;;;;5069050;28;20389;-63
2024/01/25 03:31:25;;;;;;;34.70;7.93;;;;;;;;;;5070103;28;20482;-63
2024/01/25 03:33:50;;;;;;;40.50;9.83;;;;;;;;;;5071583;28;20458;-63
2024/01/25 03:36:16;;;;;;;74.10;15.70;;;;;;;;;;5074229;28;20498;-63
2024/01/25 03:38:41;;;;;;;40.60;12.23;;;;;;;;;;5072232;28;21001;-63
2024/01/25 03:41:06;;;;;;;40.40;13.80;;;;;;;;;;5073529;28;20016;-63
2024/01/25 03:43:31;;;;;;;35.05;9.38;;;;;;;;;;5072585;28;20460;-64
2024/01/25 03:45:56;;;;;;;40.37;11.17;;;;;;;;;;5073783;28;20428;-64
2024/01/25 03:48:22;;;;;;;47.97;9.23;;;;;;;;;;5072236;28;20406;-64
2024/01/25 03:50:47;;;;;;;32.65;9.30;;;;;;;;;;5072946;28;20411;-64
2024/01/25 03:53:12;;;;;;;38.38;11.48;;;;;;;;;;5073643;28;20017;-65
2024/01/25 03:55:37;;;;;;;48.60;12.60;;;;;;;;;;5071864;28;20480;-63
2024/01/25 03:58:03;;;;;;;56.77;11.10;;;;;;;;;;5073787;28;20418;-63
2024/01/25 04:00:28;;;;;;;44.45;11.50;;;;;;;;;;5072422;28;20450;-64
2024/01/25 04:02:53;;;;;;;37.03;10.37;;;;;;;;;;5073510;28;20031;-64
2024/01/25 04:05:18;;;;;;;54.70;11.75;;;;;;;;;;5072115;28;20474;-64
2024/01/25 04:07:43;;;;;;;40.77;9.30;;;;;;;;;;5073379;28;20028;-64
2024/01/25 04:10:09;;;;;;;27.40;11.67;;;;;;;;;;5071805;28;20904;-64
2024/01/25 04:12:34;;;;;;;41.30;12.60;;;;;;;;;;5073516;28;20427;-64
2024/01/25 04:14:59;;;;;;;38.50;10.10;;;;;;;;;;5071875;28;20447;-64
2024/01/25 04:17:25;;;;;;;54.77;17.50;;;;;;;;;;5073029;28;20103;-64
2024/01/25 04:19:50;;;;;;;50.90;10.98;;;;;;;;;;5071790;28;20478;-64
2024/01/25 04:22:15;;;;;;;37.10;11.27;;;;;;;;;;5072888;28;20017;-64
2024/01/25 04:24:41;;;;;;;38.53;10.80;;;;;;;;;;5071451;28;20501;-64
2024/01/25 04:27:06;;;;;;;40.50;10.47;;;;;;;;;;5073239;28;20025;-64
2024/01/25 04:29:31;;;;;;;47.63;9.53;;;;;;;;;;5071888;28;20576;-64
2024/01/25 04:31:56;;;;;;;59.90;12.13;;;;;;;;;;5072716;28;21008;-64
2024/01/25 04:34:21;;;;;;;49.78;14.68;;;;;;;;;;5071586;28;20481;-64
2024/01/25 04:36:46;;;;;;;40.67;11.83;;;;;;;;;;5072782;28;20100;-63
2024/01/25 04:39:12;;;;;;;41.83;12.73;;;;;;;;;;5071212;28;20467;-63
2024/01/25 04:41:37;;;;;;;35.53;10.95;;;;;;;;;;5072902;28;20025;-63
2024/01/25 04:44:03;;;;;;;55.75;16.00;;;;;;;;;;5071388;28;20373;-63
2024/01/25 04:46:28;;;;;;;47.08;14.15;;;;;;;;;;5072522;28;20525;-64
2024/01/25 04:48:53;;;;;;;56.23;12.43;;;;;;;;;;5071365;28;20036;-64
2024/01/25 04:51:19;;;;;;;27.05;9.90;;;;;;;;;;5072156;28;20451;-64
2024/01/25 04:53:45;;;;;;;45.85;12.52;;;;;;;;;;5070774;28;20488;-64
2024/01/25 04:56:10;;;;;;;53.30;12.45;;;;;;;;;;5072622;28;20022;-64
2024/01/25 04:58:35;;;;;;;47.20;13.47;;;;;;;;;;5071317;28;20154;-64
2024/01/25 05:01:00;;;;;;;65.53;12.90;;;;;;;;;;5072253;28;20934;-64
2024/01/25 05:03:25;;;;;;;51.15;13.20;;;;;;;;;;5070946;28;20439;-64
2024/01/25 05:05:51;;;;;;;49.90;16.07;;;;;;;;;;5072249;28;20024;-64
2024/01/25 05:08:16;;;;;;;48.27;14.63;;;;;;;;;;5071226;28;20447;-64
2024/01/25 05:10:41;;;;;;;51.25;17.15;;;;;;;;;;5070573;28;20457;-65
2024/01/25 05:13:07;;;;;;;40.95;10.95;;;;;;;;;;5071818;28;20017;-63
2024/01/25 05:15:32;;;;;;;36.13;10.75;;;;;;;;;;5070125;28;20040;-63
2024/01/25 05:17:57;;;;;;;61.83;13.43;;;;;;;;;;5072244;28;20021;-63
2024/01/25 05:20:22;;;;;;;59.20;15.55;;;;;;;;;;5070384;28;20454;-63
2024/01/25 05:22:48;;;;;;;49.85;13.80;;;;;;;;;;5071431;28;20464;-63
2024/01/25 05:25:13;;;;;;;66.82;14.30;;;;;;;;;;5069899;28;20407;-63
2024/01/25 05:27:38;;;;;;;56.13;15.00;;;;;;;;;;5071345;28;20039;-60
2024/01/25 05:30:04;;;;;;;35.37;9.07;;;;;;;;;;5070102;28;20508;-60
2024/01/25 05:32:30;;;;;;;69.53;13.13;;;;;;;;;;5072077;28;20517;-59
2024/01/25 05:34:55;;;;;;;60.63;12.00;;;;;;;;;;5070133;28;20119;-59
2024/01/25 05:37:20;;;;;;;55.47;12.77;;;;;;;;;;5071700;28;20039;-59
2024/01/25 05:39:46;;;;;;;56.83;13.13;;;;;;;;;;5069233;28;20566;-59
2024/01/25 05:42:11;;;;;;;60.47;16.90;;;;;;;;;;5071762;28;20414;-59
2024/01/25 05:44:36;;;;;;;55.93;14.60;;;;;;;;;;5069986;28;20463;-61
2024/01/25 05:47:01;;;;;;;43.53;15.27;;;;;;;;;;5071325;28;20422;-59
2024/01/25 05:49:26;;;;;;;44.20;11.20;;;;;;;;;;5070077;28;20475;-59
2024/01/25 05:51:51;;;;;;;45.00;13.63;;;;;;;;;;5071443;28;20479;-59
2024/01/25 05:54:17;;;;;;;39.27;11.47;;;;;;;;;;5069622;28;20487;-59
2024/01/25 05:56:42;;;;;;;70.87;11.97;;;;;;;;;;5070857;28;20419;-59
2024/01/25 05:59:07;;;;;;;47.70;11.60;;;;;;;;;;5069946;28;20455;-59
2024/01/25 06:01:32;;;;;;;46.90;11.45;;;;;;;;;;5071317;28;20434;-59
2024/01/25 06:03:57;;;;;;;46.10;13.80;;;;;;;;;;5069545;28;20519;-59
2024/01/25 06:06:23;;;;;;;51.47;13.67;;;;;;;;;;5067138;28;20534;-59
2024/01/25 06:08:48;;;;;;;70.37;12.37;;;;;;;;;;5067488;28;20586;-60
2024/01/25 06:11:13;;;;;;;49.05;14.15;;;;;;;;;;5069495;28;20476;-59
2024/01/25 06:13:38;;;;;;;41.53;12.00;;;;;;;;;;5068142;28;20025;-59
2024/01/25 06:16:04;;;;;;;57.97;12.33;;;;;;;;;;5069683;28;20034;-59
2024/01/25 06:18:29;;;;;;;45.60;11.57;;;;;;;;;;5068501;28;20447;-59
2024/01/25 06:20:54;;;;;;;50.47;15.03;;;;;;;;;;5069648;28;20023;-59
2024/01/25 06:23:19;;;;;;;49.17;12.05;;;;;;;;;;5069818;28;20451;-59
2024/01/25 06:25:44;;;;;;;48.95;12.93;;;;;;;;;;5068176;28;20043;-60
2024/01/25 06:28:10;;;;;;;38.27;12.50;;;;;;;;;;5070005;28;20112;-59
2024/01/25 06:30:35;;;;;;;55.37;12.43;;;;;;;;;;5067703;28;20985;-60
2024/01/25 06:33:00;;;;;;;60.10;14.27;;;;;;;;;;5070836;28;20423;-60
2024/01/25 06:35:25;;;;;;;52.77;14.03;;;;;;;;;;5069381;28;20489;-59
2024/01/25 06:37:50;;;;;;;49.45;12.80;;;;;;;;;;5070310;28;20920;-60
2024/01/25 06:40:16;;;;;;;61.17;15.90;;;;;;;;;;5068464;28;20139;-59
2024/01/25 06:42:42;;;;;;;61.10;18.75;;;;;;;;;;5069675;28;20418;-59
2024/01/25 06:45:07;;;;;;;45.88;12.10;;;;;;;;;;5069087;28;20056;-59
2024/01/25 06:47:33;;;;;;;43.78;14.73;;;;;;;;;;5070669;28;20098;-59
2024/01/25 06:49:58;;;;;;;58.30;15.70;;;;;;;;;;5065709;28;20078;-59
2024/01/25 06:52:23;;;;;;;47.90;10.90;;;;;;;;;;5074432;28;20470;-59
2024/01/25 06:54:48;;;;;;;57.77;14.13;;;;;;;;;;5069075;28;21031;-59
2024/01/25 06:57:16;;;;;;;32.33;11.17;;;;;;;;;;5070583;28;20021;-59
2024/01/25 06:59:42;;;;;;;56.88;16.35;;;;;;;;;;5068805;28;20475;-59
2024/01/25 07:02:07;;;;;;;58.72;16.58;;;;;;;;;;5070873;28;20044;-59
2024/01/25 07:04:32;;;;;;;51.15;13.13;;;;;;;;;;5069062;28;20037;-59
2024/01/25 07:06:58;;;;;;;61.03;15.15;;;;;;;;;;5071805;28;20456;-59
2024/01/25 07:09:23;;;;;;;68.32;13.95;;;;;;;;;;5073230;28;20051;-59
2024/01/25 07:11:49;;;;;;;49.50;13.27;;;;;;;;;;5074258;28;20027;-60
2024/01/25 07:14:14;;;;;;;63.23;16.17;;;;;;;;;;5072805;28;20504;-59
2024/01/25 07:16:39;;;;;;;33.08;13.05;;;;;;;;;;5072811;28;20461;-59
2024/01/25 07:19:04;;;;;;;55.40;14.33;;;;;;;;;;5052800;28;20036;-59
2024/01/25 07:21:32;;;;;;;56.55;15.63;;;;;;;;;;5053355;28;20428;-58
2024/01/25 07:23:59;;;;;;;49.80;13.13;;;;;;;;;;5051512;28;20032;-59
2024/01/25 07:26:24;;;;;;;64.80;13.45;;;;;;;;;;5054167;28;20060;-59
2024/01/25 07:28:49;;;;;;;50.17;14.73;;;;;;;;;;5052532;28;20060;-59
2024/01/25 07:31:15;;;;;;;43.75;11.50;;;;;;;;;;5054299;28;20027;-59
2024/01/25 07:33:40;;;;;;;57.75;15.35;;;;;;;;;;5052721;28;20044;-59
2024/01/25 07:36:05;;;;;;;69.57;15.10;;;;;;;;;;5053816;28;20063;-59
2024/01/25 07:38:30;;;;;;;59.22;15.00;;;;;;;;;;5052523;28;20033;-59
2024/01/25 07:40:56;;;;;;;77.00;17.67;;;;;;;;;;5053863;28;20488;-59
2024/01/25 07:43:21;;;;;;;56.25;16.75;;;;;;;;;;5052196;28;20447;-59
2024/01/25 07:45:46;;;;;;;68.03;16.47;;;;;;;;;;5053639;28;20024;-59
2024/01/25 07:48:11;;;;;;;55.60;14.23;;;;;;;;;;5053684;28;20423;-59
2024/01/25 07:50:36;;;;;;;76.37;16.93;;;;;;;;;;5051903;28;20536;-59
2024/01/25 07:53:02;;;;;;;68.03;15.07;;;;;;;;;;5053656;28;21111;-59
2024/01/25 07:55:29;;;;;;;57.33;16.30;;;;;;;;;;5052382;28;20443;-59
2024/01/25 07:57:54;;;;;;;67.93;15.65;;;;;;;;;;5053763;28;20075;-59
2024/01/25 08:00:20;;;;;;;56.13;16.93;;;;;;;;;;5051656;28;20048;-59
2024/01/25 08:02:45;;;;;;;77.40;18.52;;;;;;;;;;5053383;28;20427;-59
2024/01/25 08:05:11;;;;;;;62.60;15.80;;;;;;;;;;5052205;28;20040;-60
2024/01/25 08:07:37;;;;;;;71.88;17.40;;;;;;;;;;5053091;28;20489;-59
2024/01/25 08:10:02;;;;;;;85.13;22.02;;;;;;;;;;5051696;28;20605;-59
2024/01/25 08:12:27;;;;;;;49.97;16.45;;;;;;;;;;5051680;28;20109;-59
2024/01/25 08:14:53;;;;;;;73.43;14.80;;;;;;;;;;5049628;28;20045;-59
2024/01/25 08:17:18;;;;;;;44.00;14.00;;;;;;;;;;5051696;28;20454;-59
2024/01/25 08:19:44;;;;;;;57.03;17.58;;;;;;;;;;5049082;28;20041;-59
2024/01/25 08:22:09;;;;;;;45.25;14.68;;;;;;;;;;5052029;28;20082;-59
2024/01/25 08:24:35;;;;;;;55.72;14.00;;;;;;;;;;5051641;28;20572;-59
2024/01/25 08:27:00;;;;;;;50.28;13.52;;;;;;;;;;5053381;28;20040;-59
2024/01/25 08:29:25;;;;;;;45.13;13.85;;;;;;;;;;5051255;28;20040;-59
2024/01/25 08:31:50;;;;;;;38.87;15.10;;;;;;;;;;5052817;28;20104;-59
2024/01/25 08:34:16;;;;;;;47.27;12.93;;;;;;;;;;5051615;28;20447;-59
2024/01/25 08:36:41;;;;;;;57.33;13.57;;;;;;;;;;5052462;28;20032;-59
2024/01/25 08:39:08;;;;;;;47.10;12.93;;;;;;;;;;5051643;28;20590;-59
2024/01/25 08:41:33;;;;;;;47.13;14.32;;;;;;;;;;5053095;28;20420;-59
2024/01/25 08:43:59;;;;;;;54.10;12.50;;;;;;;;;;5050758;28;20515;-59
2024/01/25 08:46:24;;;;;;;40.80;10.80;;;;;;;;;;5052871;28;20435;-59
2024/01/25 08:48:49;;;;;;;40.07;14.67;;;;;;;;;;5051154;28;20482;-59
2024/01/25 08:51:14;;;;;;;53.08;13.98;;;;;;;;;;5052348;28;20454;-59
2024/01/25 08:53:39;;;;;;;57.63;13.38;;;;;;;;;;5051205;28;20037;-59
2024/01/25 08:56:05;;;;;;;65.00;15.05;;;;;;;;;;5052493;28;20063;-59
2024/01/25 08:58:30;;;;;;;55.13;13.20;;;;;;;;;;5050881;28;20024;-59
2024/01/25 09:00:55;;;;;;;59.38;16.05;;;;;;;;;;5052508;28;20479;-59
2024/01/25 09:03:22;;;;;;;52.20;13.70;;;;;;;;;;5051074;28;20071;-59
2024/01/25 09:05:47;;;;;;;49.90;14.13;;;;;;;;;;5051865;28;20411;-59
2024/01/25 09:08:13;;;;;;;38.35;13.73;;;;;;;;;;5052473;28;20088;-59
2024/01/25 09:10:38;;;;;;;63.13;18.80;;;;;;;;;;5050651;28;20029;-59
2024/01/25 09:13:04;;;;;;;51.28;14.75;;;;;;;;;;5051893;28;20020;-59
2024/01/25 09:15:29;;;;;;;48.97;16.67;;;;;;;;;;5050788;28;20519;-59
2024/01/25 09:17:54;;;;;;;46.20;14.03;;;;;;;;;;5051898;28;20096;-59
2024/01/25 09:20:20;;;;;;;46.97;12.90;;;;;;;;;;5050513;28;20040;-60
2024/01/25 09:22:45;;;;;;;62.88;17.58;;;;;;;;;;5052196;28;20013;-59
2024/01/25 09:25:11;;;;;;;61.10;15.00;;;;;;;;;;5050629;28;20131;-59
2024/01/25 09:27:38;;;;;;;42.97;15.23;;;;;;;;;;5051455;28;20488;-59
2024/01/25 09:30:04;;;;;;;54.85;16.65;;;;;;;;;;5049764;28;20041;-59
2024/01/25 09:32:30;;;;;;;56.45;16.23;;;;;;;;;;5067408;28;20476;-59
2024/01/25 09:34:55;;;;;;;43.53;14.07;;;;;;;;;;5069476;28;20166;-60
2024/01/25 09:37:23;;;;;;;61.47;14.50;;;;;;;;;;5071780;28;20028;-60
2024/01/25 09:39:48;;;;;;;55.97;17.20;;;;;;;;;;5070253;28;20565;-60
2024/01/25 09:42:13;;;;;;;51.87;13.63;;;;;;;;;;5071390;28;20131;-59
2024/01/25 09:44:39;;;;;;;51.70;14.48;;;;;;;;;;5070035;28;20090;-60
2024/01/25 09:47:07;;;;;;;45.65;13.77;;;;;;;;;;5071646;28;20039;-59
2024/01/25 09:49:32;;;;;;;46.70;16.45;;;;;;;;;;5069862;28;20039;-60
2024/01/25 09:51:58;;;;;;;44.05;15.65;;;;;;;;;;5071435;28;20025;-60
2024/01/25 09:54:24;;;;;;;46.30;14.82;;;;;;;;;;5070062;28;20033;-60
2024/01/25 09:56:51;;;;;;;51.35;16.67;;;;;;;;;;5070870;28;20161;-60
2024/01/25 09:59:16;;;;;;;46.50;13.52;;;;;;;;;;5070132;28;20051;-59
2024/01/25 10:01:41;;;;;;;48.35;13.95;;;;;;;;;;5071371;28;20020;-60
2024/01/25 10:04:07;;;;;;;44.08;14.45;;;;;;;;;;5069661;28;20621;-60
2024/01/25 10:06:33;;;;;;;50.95;15.65;;;;;;;;;;5071291;28;20030;-60
2024/01/25 10:08:58;;;;;;;45.00;13.63;;;;;;;;;;5069558;28;20028;-59
2024/01/25 10:11:24;;;;;;;45.45;14.20;;;;;;;;;;5070846;28;20381;-60
2024/01/25 10:13:53;;;;;;;50.20;12.48;;;;;;;;;;5069645;28;20040;-60
2024/01/25 10:16:19;;;;;;;35.00;11.20;;;;;;;;;;5071348;28;20386;-59
2024/01/25 10:18:48;;;;;;;61.50;15.00;;;;;;;;;;5069045;28;20111;-60
2024/01/25 10:21:14;;;;;;;64.68;15.90;;;;;;;;;;5071405;28;20143;-60
2024/01/25 10:23:40;;;;;;;55.13;14.25;;;;;;;;;;5068799;28;20469;-59
2024/01/25 10:26:05;;;;;;;45.33;14.35;;;;;;;;;;5070228;28;20020;-59
2024/01/25 10:28:31;;;;;;;42.15;11.30;;;;;;;;;;5069660;28;20021;-59
2024/01/25 10:31:04;;;;;;;53.65;16.13;;;;;;;;;;5070519;28;20028;-59
2024/01/25 10:33:29;;;;;;;44.42;12.48;;;;;;;;;;5069187;28;20016;-59
2024/01/25 10:35:55;;;;;;;54.20;13.75;;;;;;;;;;5070849;28;20013;-59
2024/01/25 10:38:21;;;;;;;47.05;15.32;;;;;;;;;;5069229;28;20032;-59
2024/01/25 10:40:46;;;;;;;48.33;12.82;;;;;;;;;;5068796;28;20079;-59
2024/01/25 10:43:11;;;;;;;38.42;11.57;;;;;;;;;;5068604;28;20024;-59
2024/01/25 10:45:37;;;;;;;35.40;12.77;;;;;;;;;;5067113;28;20037;-59
2024/01/25 10:48:02;;;;;;;49.17;15.17;;;;;;;;;;5068849;28;20020;-60
2024/01/25 10:50:27;;;;;;;46.42;14.82;;;;;;;;;;5065700;28;20122;-59
2024/01/25 10:52:52;;;;;;;66.47;15.18;;;;;;;;;;5068514;28;20027;-59
2024/01/25 10:55:18;;;;;;;55.72;16.83;;;;;;;;;;5068053;28;20729;-59
2024/01/25 10:57:44;;;;;;;60.13;16.20;;;;;;;;;;5070421;28;20430;-59
2024/01/25 11:00:10;;;;;;;58.63;15.95;;;;;;;;;;5069187;28;20459;-60
2024/01/25 11:02:36;;;;;;;54.25;16.25;;;;;;;;;;5070443;28;20104;-60
2024/01/25 11:05:03;;;;;;;47.10;16.63;;;;;;;;;;5068919;28;20432;-59
2024/01/25 11:07:28;;;;;;;40.30;13.57;;;;;;;;;;5070612;28;20074;-59
2024/01/25 11:09:54;;;;;;;50.00;13.83;;;;;;;;;;5068850;28;20045;-59
2024/01/25 11:12:19;;;;;;;33.47;12.25;;;;;;;;;;5069748;28;20431;-59
2024/01/25 11:14:44;;;;;;;44.53;14.15;;;;;;;;;;5068908;28;20051;-59
2024/01/25 11:17:20;;;;;;;41.53;12.73;;;;;;;;;;5070224;28;20034;-59
2024/01/25 11:19:45;;;;;;;50.20;15.55;;;;;;;;;;5068615;28;20041;-59
2024/01/25 11:22:11;;;;;;;50.17;14.83;;;;;;;;;;5070634;28;20147;-59
2024/01/25 11:24:38;;;;;;;38.00;12.40;;;;;;;;;;5068750;28;20090;-60
2024/01/25 11:27:04;;;;;;;47.60;11.93;;;;;;;;;;5070005;28;20483;-60
2024/01/25 11:29:29;;;;;;;47.90;11.68;;;;;;;;;;5068873;28;20033;-59
2024/01/25 11:31:56;;;;;;;49.85;16.52;;;;;;;;;;5069989;28;20028;-59
2024/01/25 11:34:21;;;;;;;39.53;15.68;;;;;;;;;;5068400;28;20024;-59
2024/01/25 11:36:47;;;;;;;34.85;13.75;;;;;;;;;;5069876;28;20066;-60
2024/01/25 11:39:13;;;;;;;45.25;15.27;;;;;;;;;;5068127;28;20036;-59
2024/01/25 11:41:39;;;;;;;36.92;12.15;;;;;;;;;;5069539;28;20009;-59
2024/01/25 11:44:04;;;;;;;39.42;11.98;;;;;;;;;;5069094;28;20043;-59
2024/01/25 11:46:30;;;;;;;41.22;13.48;;;;;;;;;;5070316;28;20031;-60
2024/01/25 11:48:55;;;;;;;41.78;13.27;;;;;;;;;;5068240;28;20029;-59
2024/01/25 11:51:20;;;;;;;37.28;11.82;;;;;;;;;;5070288;28;20475;-59
2024/01/25 11:53:46;;;;;;;38.60;12.23;;;;;;;;;;5069821;28;20029;-59
2024/01/25 11:56:16;;;;;;;32.50;11.37;;;;;;;;;;5073462;28;20029;-59
2024/01/25 11:58:42;;;;;;;34.30;10.52;;;;;;;;;;5072380;28;20036;-59
2024/01/25 12:01:07;;;;;;;43.67;13.90;;;;;;;;;;5074021;28;20043;-59
2024/01/25 12:03:34;;;;;;;36.95;11.65;;;;;;;;;;5071713;28;20021;-59
2024/01/25 12:06:00;;;;;;;38.03;12.05;;;;;;;;;;5073648;28;20031;-59
2024/01/25 12:08:25;;;;;;;47.65;15.55;;;;;;;;;;5072386;28;20070;-60
2024/01/25 12:10:50;;;;;;;43.92;15.35;;;;;;;;;;5072803;28;20506;-59
2024/01/25 12:13:16;;;;;;;49.08;15.60;;;;;;;;;;5073757;28;20048;-59
2024/01/25 12:15:41;;;;;;;39.10;11.50;;;;;;;;;;5071765;28;20025;-59
2024/01/25 12:18:07;;;;;;;42.63;13.75;;;;;;;;;;5073034;28;20344;-59
2024/01/25 12:20:35;;;;;;;61.83;14.68;;;;;;;;;;5071979;28;20525;-59
2024/01/25 12:23:00;;;;;;;45.90;15.02;;;;;;;;;;5073268;28;20103;-59
2024/01/25 12:25:25;;;;;;;48.80;13.77;;;;;;;;;;5071474;28;20116;-59
2024/01/25 12:27:50;;;;;;;57.03;17.45;;;;;;;;;;5072999;28;20066;-59
2024/01/25 12:30:16;;;;;;;39.92;13.88;;;;;;;;;;5071806;28;20039;-59
2024/01/25 12:32:41;;;;;;;35.13;13.05;;;;;;;;;;5072482;28;20023;-59
2024/01/25 12:35:07;;;;;;;39.67;11.43;;;;;;;;;;5071538;28;20093;-60
2024/01/25 12:37:33;;;;;;;41.33;12.25;;;;;;;;;;5073078;28;20451;-59
2024/01/25 12:39:58;;;;;;;32.00;13.07;;;;;;;;;;5070875;28;20499;-59
2024/01/25 12:42:23;;;;;;;52.83;15.27;;;;;;;;;;5073016;28;20020;-59
2024/01/25 12:44:50;;;;;;;45.10;13.10;;;;;;;;;;5071205;28;20517;-59
2024/01/25 12:47:16;;;;;;;52.15;12.75;;;;;;;;;;5072492;28;20434;-59
2024/01/25 12:49:41;;;;;;;51.10;14.95;;;;;;;;;;5071246;28;20028;-59
2024/01/25 12:52:08;;;;;;;37.67;12.90;;;;;;;;;;5072617;28;20073;-59
2024/01/25 12:54:33;;;;;;;50.25;13.15;;;;;;;;;;5070867;28;20047;-59
2024/01/25 12:56:58;;;;;;;37.57;12.67;;;;;;;;;;5072645;28;20020;-59
2024/01/25 12:59:23;;;;;;;50.33;14.93;;;;;;;;;;5071318;28;20033;-59
2024/01/25 13:01:48;;;;;;;52.53;13.97;;;;;;;;;;5071918;28;20016;-59
2024/01/25 13:04:13;;;;;;;49.43;12.43;;;;;;;;;;5070808;28;20068;-59
2024/01/25 13:06:39;;;;;;;36.22;12.70;;;;;;;;;;5072473;28;20534;-59
2024/01/25 13:09:04;;;;;;;50.67;13.50;;;;;;;;;;5070558;28;20040;-59
2024/01/25 13:11:29;;;;;;;40.47;12.00;;;;;;;;;;5072354;28;20027;-59
2024/01/25 13:13:55;;;;;;;62.88;18.45;;;;;;;;;;5070880;28;20454;-59
2024/01/25 13:16:20;;;;;;;28.92;11.43;;;;;;;;;;5071897;28;20467;-59
2024/01/25 13:18:45;;;;;;;45.93;14.07;;;;;;;;;;5070531;28;20032;-59
2024/01/25 13:21:10;;;;;;;43.70;14.30;;;;;;;;;;5072314;28;20411;-59
2024/01/25 13:23:35;;;;;;;52.87;16.50;;;;;;;;;;5070231;28;20810;-59
2024/01/25 13:26:01;;;;;;;43.50;14.70;;;;;;;;;;5071877;28;20426;-59
2024/01/25 13:28:26;;;;;;;50.92;14.52;;;;;;;;;;5070608;28;20411;-59
2024/01/25 13:30:53;;;;;;;55.30;16.30;;;;;;;;;;5071594;28;20016;-59
2024/01/25 13:33:19;;;;;;;35.45;11.98;;;;;;;;;;5070405;28;20502;-59
2024/01/25 13:35:44;;;;;;;54.92;15.68;;;;;;;;;;5071699;28;20103;-59
2024/01/25 13:38:14;;;;;;;41.80;12.60;;;;;;;;;;5071613;28;20407;-59
2024/01/25 13:40:39;;;;;;;40.53;13.38;;;;;;;;;;5069669;28;20047;-59
2024/01/25 13:43:04;;;;;;;34.93;11.47;;;;;;;;;;5071749;28;20379;-59
2024/01/25 13:45:30;;;;;;;49.70;12.90;;;;;;;;;;5070167;28;20869;-59
2024/01/25 13:47:55;;;;;;;41.35;12.57;;;;;;;;;;5071207;28;20016;-59
2024/01/25 13:50:20;;;;;;;32.87;11.87;;;;;;;;;;5070263;28;20063;-59
2024/01/25 13:52:45;;;;;;;76.53;18.57;;;;;;;;;;5071158;28;20008;-59
2024/01/25 13:55:10;;;;;;;35.42;10.75;;;;;;;;;;5065961;28;20417;-60
2024/01/25 13:57:36;;;;;;;41.77;13.37;;;;;;;;;;5068718;28;20021;-59
2024/01/25 14:00:01;;;;;;;41.08;16.80;;;;;;;;;;5069812;28;20461;-59
2024/01/25 14:02:26;;;;;;;38.50;11.90;;;;;;;;;;5071144;28;20486;-59
2024/01/25 14:04:52;;;;;;;47.63;15.17;;;;;;;;;;5069627;28;20036;-59
2024/01/25 14:07:17;;;;;;;44.20;14.00;;;;;;;;;;5071446;28;20411;-59